Time;durP1;ratioP1;P1;durP2;ratioP2;P2;SDS_P1;SDS_P2;PMS_P1;PMS_P2;Temp;Humidity;BMP_temperature;BMP_pressure;BME280_temperature;BME280_humidity;BME280_pressure;Samples;Min_cycle;Max_cycle;Signal;HPM_P1;HPM_P2
2023/03/07 00:01:33;;;;;;;1999.90;999.90;;;5.00;99.90;;;;;;5012903;28;20032;-74
2023/03/07 00:03:59;;;;;;;1999.90;999.90;;;5.00;99.90;;;;;;5013223;28;20026;-82
2023/03/07 00:06:25;;;;;;;1999.90;999.90;;;5.00;99.90;;;;;;5012452;28;20030;-83
2023/03/07 00:08:52;;;;;;;1999.90;999.90;;;5.00;99.90;;;;;;5013237;28;20378;-74
2023/03/07 00:11:18;;;;;;;1999.90;999.90;;;5.00;99.90;;;;;;5012684;28;20037;-74
2023/03/07 00:13:44;;;;;;;1999.90;999.90;;;4.90;99.90;;;;;;5013125;28;20030;-74
2023/03/07 00:16:13;;;;;;;1999.90;999.90;;;4.90;99.90;;;;;;5013182;28;20026;-82
2023/03/07 00:18:40;;;;;;;1999.90;999.90;;;4.90;99.90;;;;;;5012910;28;20029;-82
2023/03/07 00:21:08;;;;;;;1999.90;999.90;;;4.90;99.90;;;;;;5011469;28;20297;-74
2023/03/07 00:23:36;;;;;;;1999.90;999.90;;;4.90;99.90;;;;;;5012653;28;20037;-74
2023/03/07 00:26:08;;;;;;;1999.90;999.90;;;4.90;99.90;;;;;;5013109;28;20026;-74
2023/03/07 00:28:34;;;;;;;1999.90;999.90;;;4.90;99.90;;;;;;5012842;28;20556;-82
2023/03/07 00:31:02;;;;;;;1999.90;999.90;;;4.90;99.90;;;;;;5012732;28;20169;-82
2023/03/07 00:33:28;;;;;;;1999.90;999.90;;;4.90;99.90;;;;;;5012617;28;20026;-74
2023/03/07 00:35:59;;;;;;;1999.90;999.90;;;5.00;99.90;;;;;;5012739;28;20026;-74
2023/03/07 00:38:25;;;;;;;1999.90;999.90;;;5.00;99.90;;;;;;5012783;28;20041;-74
2023/03/07 00:40:58;;;;;;;1999.90;999.90;;;5.00;99.90;;;;;;5007053;28;20545;-82
2023/03/07 00:43:24;;;;;;;1999.90;999.90;;;5.00;99.90;;;;;;4993378;28;20081;-82
2023/03/07 00:45:50;;;;;;;1999.90;999.90;;;4.90;99.90;;;;;;5000406;28;20440;-74
2023/03/07 00:48:17;;;;;;;1999.90;999.90;;;5.00;99.90;;;;;;5011121;28;20080;-83
2023/03/07 00:50:42;;;;;;;1999.90;999.90;;;5.00;99.90;;;;;;5012072;28;20077;-74
2023/03/07 00:53:08;;;;;;;1999.90;999.90;;;5.00;99.90;;;;;;5012529;28;20030;-74
2023/03/07 00:55:34;;;;;;;1999.90;999.90;;;5.00;99.90;;;;;;5012496;28;20374;-74
2023/03/07 00:57:59;;;;;;;1999.90;999.90;;;5.00;99.90;;;;;;5012716;28;20053;-82
2023/03/07 01:00:25;;;;;;;1999.90;999.90;;;4.90;99.90;;;;;;5012308;28;20105;-74
2023/03/07 01:02:50;;;;;;;1999.90;999.90;;;5.00;99.90;;;;;;5012480;28;20441;-74
2023/03/07 01:05:16;;;;;;;1999.90;999.90;;;5.00;99.90;;;;;;5012633;28;20026;-74
2023/03/07 01:07:42;;;;;;;1999.90;999.90;;;5.00;99.90;;;;;;5011067;28;20026;-82
2023/03/07 01:10:08;;;;;;;1999.90;999.90;;;4.90;99.90;;;;;;5012373;28;20508;-82
2023/03/07 01:12:34;;;;;;;1999.90;999.90;;;4.90;99.90;;;;;;5012635;28;20431;-74
2023/03/07 01:14:59;;;;;;;1999.90;999.90;;;4.90;99.90;;;;;;5012439;28;20112;-74
2023/03/07 01:17:25;;;;;;;1999.90;999.90;;;4.90;99.90;;;;;;5011751;28;20022;-74
2023/03/07 01:19:51;;;;;;;1999.90;999.90;;;4.90;99.90;;;;;;5014806;28;20477;-82
2023/03/07 01:22:16;;;;;;;1999.90;999.90;;;4.90;99.90;;;;;;5016061;28;20393;-83
2023/03/07 01:24:42;;;;;;;1999.90;999.90;;;4.90;99.90;;;;;;5015673;28;20033;-74
2023/03/07 01:27:08;;;;;;;1999.90;999.90;;;4.90;99.90;;;;;;5015755;28;20030;-74
2023/03/07 01:29:33;;;;;;;1999.90;999.90;;;4.90;99.90;;;;;;5015796;28;20118;-74
2023/03/07 01:31:59;;;;;;;1999.90;999.90;;;4.80;99.90;;;;;;5015690;28;20481;-74
2023/03/07 01:34:25;;;;;;;1999.90;999.90;;;4.80;99.90;;;;;;5015755;28;20397;-83
2023/03/07 01:36:50;;;;;;;1999.90;999.90;;;4.80;99.90;;;;;;5015334;28;20033;-82
2023/03/07 01:39:16;;;;;;;1999.90;999.90;;;4.80;99.90;;;;;;5018495;28;20027;-75
2023/03/07 01:41:43;;;;;;;1999.90;999.90;;;4.80;99.90;;;;;;4999542;28;20025;-74
2023/03/07 01:44:21;;;;;;;1999.90;999.90;;;4.80;99.90;;;;;;5010872;28;20031;-74
2023/03/07 01:46:55;;;;;;;1999.90;999.90;;;4.80;99.90;;;;;;5011051;28;20050;-82
2023/03/07 01:49:31;;;;;;;1999.90;999.90;;;4.70;99.90;;;;;;5014683;28;20436;-82
2023/03/07 01:52:10;;;;;;;1999.90;999.90;;;4.70;99.90;;;;;;5015422;28;20050;-74
2023/03/07 01:54:47;;;;;;;1999.90;999.90;;;4.70;99.90;;;;;;5013819;28;20378;-74
2023/03/07 01:57:15;;;;;;;1999.90;999.90;;;4.70;99.90;;;;;;5015517;28;20029;-74
2023/03/07 01:59:44;;;;;;;1999.90;999.90;;;4.60;99.90;;;;;;5015253;28;20033;-74
2023/03/07 02:02:15;;;;;;;1999.90;999.90;;;4.60;99.90;;;;;;5015112;28;20018;-74
2023/03/07 02:04:44;;;;;;;1999.90;999.90;;;4.60;99.90;;;;;;5013595;28;20056;-74
2023/03/07 02:07:11;;;;;;;1999.90;999.90;;;4.60;99.90;;;;;;5015125;28;20563;-75
2023/03/07 02:09:37;;;;;;;1999.90;999.90;;;4.60;99.90;;;;;;5013579;28;20037;-74
2023/03/07 02:12:03;;;;;;;1999.90;999.90;;;4.60;99.90;;;;;;5015056;28;20060;-74
2023/03/07 02:14:29;;;;;;;1999.90;999.90;;;4.60;99.90;;;;;;5014416;28;20058;-74
2023/03/07 02:16:55;;;;;;;1999.90;999.90;;;4.70;99.90;;;;;;5013462;28;20030;-74
2023/03/07 02:19:48;;;;;;;1999.90;999.90;;;4.60;99.90;;;;;;5014724;28;20026;-74
2023/03/07 02:22:16;;;;;;;1999.90;999.90;;;4.60;99.90;;;;;;5013858;28;20038;-74
2023/03/07 02:24:57;;;;;;;1999.90;999.90;;;4.60;99.90;;;;;;5014695;28;20033;-74
2023/03/07 02:27:24;;;;;;;1999.90;999.90;;;4.60;99.90;;;;;;5013087;28;20030;-82
2023/03/07 02:29:50;;;;;;;1999.90;999.90;;;4.60;99.90;;;;;;5014347;28;20079;-74
2023/03/07 02:32:16;;;;;;;1999.90;999.90;;;4.60;99.90;;;;;;5014644;28;20490;-74
2023/03/07 02:34:42;;;;;;;1999.90;999.90;;;4.60;99.90;;;;;;5014392;28;20034;-74
2023/03/07 02:37:14;;;;;;;1999.90;999.90;;;4.60;99.90;;;;;;5014355;28;20057;-74
2023/03/07 02:39:42;;;;;;;1999.90;999.90;;;4.60;99.90;;;;;;5017911;28;20067;-74
2023/03/07 02:42:26;;;;;;;1999.90;999.90;;;4.60;99.90;;;;;;4994822;28;20018;-74
2023/03/07 02:44:58;;;;;;;1999.90;999.90;;;4.60;99.90;;;;;;4995014;28;20417;-74
2023/03/07 02:47:25;;;;;;;1999.90;999.90;;;4.60;99.90;;;;;;4994571;28;20062;-74
2023/03/07 02:49:50;;;;;;;1999.90;999.90;;;4.60;99.90;;;;;;4993968;28;20069;-75
2023/03/07 02:52:16;;;;;;;1999.90;999.90;;;4.60;99.90;;;;;;4994592;28;20070;-83
2023/03/07 02:54:42;;;;;;;1999.90;999.90;;;4.60;99.90;;;;;;4994455;28;20397;-82
2023/03/07 02:57:09;;;;;;;1999.90;999.90;;;4.50;99.90;;;;;;4994589;28;20042;-74
2023/03/07 02:59:35;;;;;;;1999.90;999.90;;;4.60;99.90;;;;;;5009307;28;20034;-74
2023/03/07 03:02:00;;;;;;;1999.90;999.90;;;4.60;99.90;;;;;;4994676;28;20084;-74
2023/03/07 03:04:26;;;;;;;1999.90;999.90;;;4.60;99.90;;;;;;4994178;28;20548;-82
2023/03/07 03:06:52;;;;;;;1999.90;999.90;;;4.60;99.90;;;;;;4994277;28;20117;-82
2023/03/07 03:09:17;;;;;;;1999.90;999.90;;;4.60;99.90;;;;;;4994066;28;20026;-74
2023/03/07 03:11:43;;;;;;;1999.90;999.90;;;4.60;99.90;;;;;;4994110;28;20054;-74
2023/03/07 03:14:08;;;;;;;1999.90;999.90;;;4.50;99.90;;;;;;4994234;28;20497;-74
2023/03/07 03:16:34;;;;;;;1999.90;999.90;;;4.50;99.90;;;;;;4994235;28;20057;-74
2023/03/07 03:19:00;;;;;;;1999.90;999.90;;;4.40;99.90;;;;;;4992706;28;20077;-81
2023/03/07 03:21:26;;;;;;;1999.90;999.90;;;4.40;99.90;;;;;;4994436;28;20113;-74
2023/03/07 03:23:51;;;;;;;1999.90;999.90;;;4.40;99.90;;;;;;4993935;28;20102;-74
2023/03/07 03:26:18;;;;;;;1999.90;999.90;;;4.40;99.90;;;;;;4993945;28;20433;-74
2023/03/07 03:28:43;;;;;;;1999.90;999.90;;;4.40;99.90;;;;;;4994073;28;20030;-74
2023/03/07 03:31:13;;;;;;;1999.90;999.90;;;4.40;99.90;;;;;;5011199;28;20040;-74
2023/03/07 03:33:40;;;;;;;1999.90;999.90;;;4.40;99.90;;;;;;5012276;28;20157;-82
2023/03/07 03:36:08;;;;;;;1999.90;999.90;;;4.40;99.90;;;;;;5013292;28;20033;-74
2023/03/07 03:38:34;;;;;;;1999.90;999.90;;;4.40;99.90;;;;;;5013495;28;20035;-74
2023/03/07 03:41:05;;;;;;;1999.90;999.90;;;4.40;99.90;;;;;;5005914;28;20019;-74
2023/03/07 03:43:30;;;;;;;1999.90;999.90;;;4.40;99.90;;;;;;4993094;28;20081;-83
2023/03/07 03:45:57;;;;;;;1999.90;999.90;;;4.40;99.90;;;;;;5002416;28;20030;-82
2023/03/07 03:48:23;;;;;;;1999.90;999.90;;;4.50;99.90;;;;;;5013513;28;20046;-74
2023/03/07 03:50:49;;;;;;;1999.90;999.90;;;4.40;99.90;;;;;;5012445;28;20021;-74
2023/03/07 03:53:14;;;;;;;1999.90;999.90;;;4.40;99.90;;;;;;5013133;28;20033;-74
2023/03/07 03:55:40;;;;;;;1999.90;999.90;;;4.40;99.90;;;;;;5013065;28;20060;-74
2023/03/07 03:58:06;;;;;;;1999.90;999.90;;;4.40;99.90;;;;;;5013380;28;20037;-82
2023/03/07 04:00:31;;;;;;;1999.90;999.90;;;4.40;99.90;;;;;;5013470;28;20018;-82
2023/03/07 04:02:57;;;;;;;1999.90;999.90;;;4.40;99.90;;;;;;5013138;28;20026;-74
2023/03/07 04:05:22;;;;;;;1999.90;999.90;;;4.40;99.90;;;;;;5013041;28;20074;-75
2023/03/07 04:07:48;;;;;;;1999.90;999.90;;;4.40;99.90;;;;;;5012909;28;20473;-74
2023/03/07 04:10:14;;;;;;;1999.90;999.90;;;4.40;99.90;;;;;;5013146;28;20026;-82
2023/03/07 04:12:40;;;;;;;1999.90;999.90;;;4.40;99.90;;;;;;5013028;28;20026;-82
2023/03/07 04:15:06;;;;;;;1999.90;999.90;;;4.40;99.90;;;;;;5012948;28;20101;-74
2023/03/07 04:17:32;;;;;;;1999.90;999.90;;;4.40;99.90;;;;;;5012062;28;20385;-74
2023/03/07 04:19:58;;;;;;;1999.90;999.90;;;4.40;99.90;;;;;;5012816;28;20026;-75
2023/03/07 04:22:24;;;;;;;1999.90;999.90;;;4.50;99.90;;;;;;5013187;28;20072;-82
2023/03/07 04:24:50;;;;;;;1999.90;999.90;;;4.50;99.90;;;;;;5012711;28;20080;-82
2023/03/07 04:27:16;;;;;;;1999.90;999.90;;;4.50;99.90;;;;;;5012964;28;20133;-74
2023/03/07 04:29:42;;;;;;;1999.90;999.90;;;4.50;99.90;;;;;;5012963;28;20033;-74
2023/03/07 04:32:07;;;;;;;1999.90;999.90;;;4.50;99.90;;;;;;5011479;28;20034;-74
2023/03/07 04:34:33;;;;;;;1999.90;999.90;;;4.50;99.90;;;;;;5013037;28;20026;-74
2023/03/07 04:36:59;;;;;;;1999.90;999.90;;;4.50;99.90;;;;;;5012749;28;20034;-82
2023/03/07 04:39:24;;;;;;;1999.90;999.90;;;4.50;99.90;;;;;;5016842;28;20514;-82
2023/03/07 04:41:50;;;;;;;1999.90;999.90;;;4.50;99.90;;;;;;4994406;28;20022;-74
2023/03/07 04:44:16;;;;;;;1999.90;999.90;;;4.50;99.90;;;;;;4993032;28;20440;-74
2023/03/07 04:46:42;;;;;;;1999.90;999.90;;;4.50;99.90;;;;;;5007330;28;20468;-75
2023/03/07 04:49:07;;;;;;;1999.90;999.90;;;4.50;99.90;;;;;;5012896;28;20647;-82
2023/03/07 04:51:33;;;;;;;1999.90;999.90;;;4.40;99.90;;;;;;5011882;28;20063;-82
2023/03/07 04:53:59;;;;;;;1999.90;999.90;;;4.40;99.90;;;;;;5014866;28;20406;-74
2023/03/07 04:56:25;;;;;;;1999.90;999.90;;;4.40;99.90;;;;;;5016385;28;20026;-74
2023/03/07 04:58:50;;;;;;;1999.90;999.90;;;4.40;99.90;;;;;;5014906;28;20072;-74
2023/03/07 05:01:16;;;;;;;1999.90;999.90;;;4.40;99.90;;;;;;5016170;28;20030;-81
2023/03/07 05:03:43;;;;;;;1999.90;999.90;;;4.40;99.90;;;;;;5016215;28;20485;-82
2023/03/07 05:06:13;;;;;;;1999.90;999.90;;;4.40;99.90;;;;;;5016177;28;20044;-74
2023/03/07 05:08:39;;;;;;;1999.90;999.90;;;4.40;99.90;;;;;;5016115;28;20108;-74
2023/03/07 05:11:05;;;;;;;1999.90;999.90;;;4.30;99.90;;;;;;5015837;28;20022;-74
2023/03/07 05:13:31;;;;;;;1999.90;999.90;;;4.30;99.90;;;;;;5016127;28;20034;-74
2023/03/07 05:15:57;;;;;;;1999.90;999.90;;;4.30;99.90;;;;;;5015958;28;20397;-82
2023/03/07 05:18:23;;;;;;;1999.90;999.90;;;4.30;99.90;;;;;;5016012;28;20033;-83
2023/03/07 05:20:49;;;;;;;1999.90;999.90;;;4.30;99.90;;;;;;5015887;28;20018;-74
2023/03/07 05:23:16;;;;;;;1999.90;999.90;;;4.20;99.90;;;;;;5015759;28;20485;-75
2023/03/07 05:25:41;;;;;;;1999.90;999.90;;;4.20;99.90;;;;;;5016017;28;20503;-82
2023/03/07 05:28:07;;;;;;;1999.90;999.90;;;4.20;99.90;;;;;;5016091;28;20029;-82
2023/03/07 05:30:33;;;;;;;1999.90;999.90;;;4.20;99.90;;;;;;5015698;28;20033;-82
2023/03/07 05:32:58;;;;;;;1999.90;999.90;;;4.20;99.90;;;;;;5015753;28;20033;-75
2023/03/07 05:35:24;;;;;;;1999.90;999.90;;;4.20;99.90;;;;;;5015456;28;20385;-74
2023/03/07 05:37:51;;;;;;;1999.90;999.90;;;4.20;99.90;;;;;;5014515;28;20433;-81
2023/03/07 05:40:17;;;;;;;1999.90;999.90;;;4.20;99.90;;;;;;5014530;28;20094;-82
2023/03/07 05:42:43;;;;;;;1999.90;999.90;;;4.20;99.90;;;;;;4995752;28;20034;-74
2023/03/07 05:45:10;;;;;;;1999.90;999.90;;;4.10;99.90;;;;;;4997951;28;20030;-74
2023/03/07 05:47:37;;;;;;;1999.90;999.90;;;4.10;99.90;;;;;;5015291;28;20081;-74
2023/03/07 05:50:04;;;;;;;1999.90;999.90;;;4.10;99.90;;;;;;5015512;28;20492;-74
2023/03/07 05:52:31;;;;;;;1999.90;999.90;;;4.10;99.90;;;;;;5014137;28;20037;-74
2023/03/07 05:54:56;;;;;;;1999.90;999.90;;;4.00;99.90;;;;;;5015577;28;20018;-81
2023/03/07 05:57:22;;;;;;;1999.90;999.90;;;4.10;99.90;;;;;;5015385;28;20022;-82
2023/03/07 05:59:48;;;;;;;1999.90;999.90;;;4.10;99.90;;;;;;5018025;28;20131;-74
2023/03/07 06:02:14;;;;;;;1999.90;999.90;;;4.10;99.90;;;;;;5013221;28;20022;-74
2023/03/07 06:04:39;;;;;;;1999.90;999.90;;;4.10;99.90;;;;;;5014586;28;20396;-74
2023/03/07 06:07:05;;;;;;;1999.90;999.90;;;4.10;99.90;;;;;;5014893;28;20495;-74
2023/03/07 06:09:31;;;;;;;1999.90;999.90;;;4.00;99.90;;;;;;5014504;28;20057;-82
2023/03/07 06:11:56;;;;;;;1999.90;999.90;;;4.00;99.90;;;;;;5014851;28;20037;-74
2023/03/07 06:14:22;;;;;;;1999.90;999.90;;;4.00;99.90;;;;;;5014853;28;20392;-74
2023/03/07 06:16:48;;;;;;;1999.90;999.90;;;4.00;99.90;;;;;;5014982;28;20113;-74
2023/03/07 06:19:14;;;;;;;1999.90;999.90;;;4.00;99.90;;;;;;5013263;28;20467;-82
2023/03/07 06:21:40;;;;;;;1999.90;999.90;;;4.00;99.90;;;;;;5014524;28;20022;-74
2023/03/07 06:24:06;;;;;;;1999.90;999.90;;;4.00;99.90;;;;;;5014315;28;20117;-74
2023/03/07 06:26:32;;;;;;;1999.90;999.90;;;4.00;99.90;;;;;;5015297;28;20101;-81
2023/03/07 06:28:59;;;;;;;1999.90;999.90;;;3.90;99.90;;;;;;5034059;28;20033;-74
2023/03/07 06:31:25;;;;;;;1999.90;999.90;;;3.90;99.90;;;;;;5034147;28;20028;-74
2023/03/07 06:33:51;;;;;;;1999.90;999.90;;;3.90;99.90;;;;;;5023149;28;20509;-81
2023/03/07 06:36:18;;;;;;;1999.90;999.90;;;3.90;99.90;;;;;;5002443;28;20023;-74
2023/03/07 06:38:44;;;;;;;1999.90;999.90;;;3.90;99.90;;;;;;4994460;28;20093;-81
2023/03/07 06:41:09;;;;;;;1999.90;999.90;;;3.90;99.90;;;;;;5016071;28;20520;-82
2023/03/07 06:43:36;;;;;;;1999.90;999.90;;;3.90;99.90;;;;;;5013822;28;20034;-74
2023/03/07 06:46:02;;;;;;;1999.90;999.90;;;3.90;99.90;;;;;;5013765;28;20026;-74
2023/03/07 06:48:28;;;;;;;1999.90;999.90;;;3.90;99.90;;;;;;5013584;28;20042;-75
2023/03/07 06:50:53;;;;;;;1999.90;999.90;;;3.90;99.90;;;;;;5013845;28;20033;-74
2023/03/07 06:53:19;;;;;;;1999.90;999.90;;;3.90;99.90;;;;;;5012559;28;20484;-81
2023/03/07 06:55:49;;;;;;;1999.90;999.90;;;3.90;99.90;;;;;;5013572;28;20017;-81
2023/03/07 06:58:15;;;;;;;1999.90;999.90;;;3.90;99.90;;;;;;5011187;28;20065;-75
2023/03/07 07:00:41;;;;;;;1999.90;999.90;;;3.90;99.90;;;;;;5009503;28;20057;-74
2023/03/07 07:03:06;;;;;;;1999.90;999.90;;;3.90;99.90;;;;;;5018414;28;20041;-79
2023/03/07 07:05:32;;;;;;;1999.90;999.90;;;3.90;99.90;;;;;;5008324;28;20033;-75
2023/03/07 07:07:58;;;;;;;1999.90;999.90;;;3.90;99.90;;;;;;5010484;28;20409;-75
2023/03/07 07:10:23;;;;;;;1999.90;999.90;;;3.90;99.90;;;;;;5005705;28;20026;-82
2023/03/07 07:12:53;;;;;;;1999.90;999.90;;;3.90;99.90;;;;;;5010527;28;20026;-74
2023/03/07 07:15:19;;;;;;;1999.90;999.90;;;4.00;99.90;;;;;;5010258;28;20129;-74
2023/03/07 07:17:44;;;;;;;1999.90;999.90;;;4.00;99.90;;;;;;5011049;28;20855;-75
2023/03/07 07:20:10;;;;;;;1999.90;999.90;;;4.00;99.90;;;;;;5016969;28;20506;-75
2023/03/07 07:22:36;;;;;;;1999.90;999.90;;;4.00;99.90;;;;;;5010312;28;20111;-74
2023/03/07 07:25:02;;;;;;;1999.90;999.90;;;4.00;99.90;;;;;;5042598;28;20069;-75
2023/03/07 07:27:28;;;;;;;1999.90;999.90;;;4.00;99.90;;;;;;5008727;28;20053;-74
2023/03/07 07:29:54;;;;;;;1999.90;999.90;;;4.00;99.90;;;;;;5011363;28;20523;-81
2023/03/07 07:32:19;;;;;;;1999.90;999.90;;;4.10;99.90;;;;;;5020913;28;20034;-82
2023/03/07 07:34:45;;;;;;;1999.90;999.90;;;4.10;99.90;;;;;;5011191;28;20132;-79
2023/03/07 07:37:11;;;;;;;1999.90;999.90;;;4.10;99.90;;;;;;5013331;28;20030;-74
2023/03/07 07:39:39;;;;;;;1999.90;999.90;;;4.10;99.90;;;;;;5015970;28;20025;-74
2023/03/07 07:42:05;;;;;;;1999.90;999.90;;;4.10;99.90;;;;;;5001192;28;20049;-78
2023/03/07 07:44:31;;;;;;;1999.90;999.90;;;4.10;99.90;;;;;;5009942;28;20096;-81
2023/03/07 07:46:57;;;;;;;1999.90;999.90;;;4.10;99.90;;;;;;5016409;28;20493;-74
2023/03/07 07:49:23;;;;;;;1999.90;999.90;;;4.10;99.90;;;;;;5008215;28;20042;-80
2023/03/07 07:51:48;;;;;;;1999.90;999.90;;;4.10;99.90;;;;;;5006855;28;20041;-80
2023/03/07 07:54:14;;;;;;;1999.90;999.90;;;4.10;99.90;;;;;;5007354;28;20066;-82
2023/03/07 07:56:40;;;;;;;1999.90;999.90;;;4.10;99.90;;;;;;5012394;28;20099;-81
2023/03/07 07:59:05;;;;;;;1999.90;999.90;;;4.20;99.90;;;;;;5014596;28;20056;-81
2023/03/07 08:01:31;;;;;;;1999.90;999.90;;;4.20;99.90;;;;;;5020308;28;20473;-81
2023/03/07 08:03:57;;;;;;;1999.90;999.90;;;4.20;99.90;;;;;;5017406;28;20025;-74
2023/03/07 08:06:26;;;;;;;1999.90;999.90;;;4.20;99.90;;;;;;5006830;28;20033;-81
2023/03/07 08:08:53;;;;;;;1999.90;999.90;;;4.10;99.90;;;;;;5010455;28;20032;-81
2023/03/07 08:11:20;;;;;;;1999.90;999.90;;;4.10;99.90;;;;;;5008853;28;20040;-79
2023/03/07 08:13:46;;;;;;;1999.90;999.90;;;4.10;99.90;;;;;;5014663;28;20060;-75
2023/03/07 08:16:14;;;;;;;1999.90;999.90;;;4.10;99.90;;;;;;5009247;28;20034;-74
2023/03/07 08:18:50;;;;;;;1999.90;999.90;;;4.20;99.90;;;;;;5008030;28;20380;-75
2023/03/07 08:21:16;;;;;;;1999.90;999.90;;;4.20;99.90;;;;;;5007482;28;20057;-80
2023/03/07 08:23:41;;;;;;;1999.90;999.90;;;4.20;99.90;;;;;;5030031;28;20041;-81
2023/03/07 08:26:09;;;;;;;1999.90;999.90;;;4.20;99.90;;;;;;5013462;28;20033;-81
2023/03/07 08:28:36;;;;;;;1999.90;999.90;;;4.20;99.90;;;;;;5016395;28;20053;-74
2023/03/07 08:31:10;;;;;;;1999.90;999.90;;;4.20;99.90;;;;;;5013528;28;20034;-75
2023/03/07 08:33:36;;;;;;;1999.90;999.90;;;4.30;99.90;;;;;;5011141;28;20025;-74
2023/03/07 08:36:02;;;;;;;1999.90;999.90;;;4.30;99.90;;;;;;5025990;28;20472;-80
2023/03/07 08:38:28;;;;;;;1999.90;999.90;;;4.40;99.90;;;;;;5017047;28;20053;-75
2023/03/07 08:40:58;;;;;;;1999.90;999.90;;;4.40;99.90;;;;;;5030649;28;20118;-74
2023/03/07 08:43:23;;;;;;;1999.90;999.90;;;4.50;99.90;;;;;;5020475;28;20033;-74
2023/03/07 08:45:52;;;;;;;1999.90;999.90;;;4.50;99.90;;;;;;5025717;28;20768;-74
2023/03/07 08:48:19;;;;;;;1999.90;999.90;;;4.50;99.90;;;;;;5027151;28;20046;-81
2023/03/07 08:50:45;;;;;;;1999.90;999.90;;;4.60;99.90;;;;;;5021411;28;20626;-74
2023/03/07 08:53:12;;;;;;;1999.90;999.90;;;4.60;99.90;;;;;;5030161;28;20171;-80
2023/03/07 08:55:38;;;;;;;1999.90;999.90;;;4.60;99.90;;;;;;5028372;28;20532;-74
2023/03/07 08:58:04;;;;;;;1999.90;999.90;;;4.60;99.90;;;;;;5021602;28;20063;-80
2023/03/07 09:00:29;;;;;;;1999.90;999.90;;;4.60;99.90;;;;;;5016762;28;20034;-81
2023/03/07 09:02:57;;;;;;;1999.90;999.90;;;4.70;99.90;;;;;;5018349;28;20060;-75
2023/03/07 09:05:23;;;;;;;1999.90;999.90;;;4.70;99.90;;;;;;5014760;28;20033;-80
2023/03/07 09:07:49;;;;;;;1999.90;999.90;;;4.70;99.90;;;;;;5028302;28;20404;-80
2023/03/07 09:10:16;;;;;;;1999.90;999.90;;;4.70;99.90;;;;;;5018921;28;20030;-74
2023/03/07 09:12:42;;;;;;;1999.90;999.90;;;4.80;99.90;;;;;;5009757;28;20116;-80
2023/03/07 09:15:08;;;;;;;1999.90;999.90;;;4.80;99.90;;;;;;5023331;28;20575;-80
2023/03/07 09:17:33;;;;;;;1999.90;999.90;;;4.80;99.90;;;;;;5024724;28;20151;-81
2023/03/07 09:19:59;;;;;;;1999.90;999.90;;;4.80;99.90;;;;;;5014868;28;20126;-80
2023/03/07 09:22:26;;;;;;;1999.90;999.90;;;4.90;99.90;;;;;;5014520;28;20159;-80
2023/03/07 09:24:52;;;;;;;1999.90;999.90;;;5.00;99.90;;;;;;5017742;28;20033;-74
2023/03/07 09:27:18;;;;;;;1999.90;999.90;;;5.10;99.90;;;;;;5015638;28;20068;-74
2023/03/07 09:29:43;;;;;;;1999.90;999.90;;;5.20;99.90;;;;;;5021318;28;20033;-81
2023/03/07 09:32:09;;;;;;;1999.90;999.90;;;5.30;99.90;;;;;;5022556;28;20041;-74
2023/03/07 09:34:35;;;;;;;1999.90;999.90;;;5.40;99.90;;;;;;5013298;28;20030;-74
2023/03/07 09:37:02;;;;;;;1999.90;999.90;;;5.50;99.90;;;;;;5014837;28;20426;-74
2023/03/07 09:39:27;;;;;;;1999.90;999.90;;;5.50;99.90;;;;;;5021993;28;20101;-74
2023/03/07 09:42:10;;;;;;;1999.90;999.90;;;5.50;99.90;;;;;;5007862;28;20137;-80
2023/03/07 09:44:58;;;;;;;1999.90;999.90;;;5.50;99.90;;;;;;5010864;28;20053;-80
2023/03/07 09:47:59;;;;;;;1999.90;999.90;;;5.40;99.90;;;;;;5008293;28;20046;-74
2023/03/07 09:50:45;;;;;;;1999.90;999.90;;;5.50;99.90;;;;;;5044991;28;20500;-74
2023/03/07 09:53:30;;;;;;;1999.90;999.90;;;5.50;99.90;;;;;;5022573;28;20045;-77
2023/03/07 09:55:58;;;;;;;1999.90;999.90;;;5.60;99.90;;;;;;5021768;28;20026;-79
2023/03/07 09:58:26;;;;;;;1999.90;999.90;;;5.70;99.90;;;;;;5022761;28;20022;-74
2023/03/07 10:01:00;;;;;;;1999.90;999.90;;;5.60;99.90;;;;;;5007573;28;20151;-74
2023/03/07 10:03:50;;;;;;;1999.90;999.90;;;5.70;99.90;;;;;;5021763;28;20030;-74
2023/03/07 10:06:24;;;;;;;1999.90;999.90;;;5.60;99.90;;;;;;5013219;28;20064;-77
2023/03/07 10:08:50;;;;;;;1999.90;999.90;;;5.70;99.90;;;;;;5010215;28;20029;-80
2023/03/07 10:11:28;;;;;;;1999.90;999.90;;;5.60;99.90;;;;;;5018149;28;20505;-79
2023/03/07 10:14:26;;;;;;;1999.90;999.90;;;5.70;99.90;;;;;;5020744;28;20045;-74
2023/03/07 10:17:22;;;;;;;1999.90;999.90;;;5.70;99.90;;;;;;5007351;28;20519;-75
2023/03/07 10:20:19;;;;;;;1999.90;999.90;;;5.70;99.90;;;;;;5021057;28;20448;-81
2023/03/07 10:23:00;;;;;;;1999.90;999.90;;;5.80;99.90;;;;;;5017977;28;20114;-74
2023/03/07 10:25:32;;;;;;;1999.90;999.90;;;5.90;99.90;;;;;;5025546;28;20029;-81
2023/03/07 10:28:21;;;;;;;1999.90;999.90;;;6.00;99.90;;;;;;5027498;28;20028;-75
2023/03/07 10:30:49;;;;;;;1999.90;999.90;;;6.00;99.90;;;;;;5007433;28;20934;-75
2023/03/07 10:33:18;;;;;;;1999.90;999.90;;;6.00;99.90;;;;;;5016027;28;20071;-81
2023/03/07 10:35:56;;;;;;;1999.90;999.90;;;6.00;99.90;;;;;;5024770;28;20428;-75
2023/03/07 10:38:56;;;;;;;1999.90;999.90;;;6.00;99.90;;;;;;5011466;28;20084;-81
2023/03/07 10:41:22;;;;;;;1999.90;999.90;;;5.80;99.90;;;;;;5001455;28;20059;-74
2023/03/07 10:43:50;;;;;;;1999.90;999.90;;;5.90;99.90;;;;;;5022829;28;20567;-74
2023/03/07 10:46:22;;;;;;;1999.90;999.90;;;6.00;99.90;;;;;;5011418;28;20526;-81
2023/03/07 10:49:06;;;;;;;1999.90;999.90;;;6.10;99.90;;;;;;5023078;28;20069;-75
2023/03/07 10:51:49;;;;;;;1999.90;999.90;;;6.10;99.90;;;;;;5004694;28;20272;-75
2023/03/07 10:54:22;;;;;;;1999.90;999.90;;;6.10;99.90;;;;;;5030515;28;20057;-75
2023/03/07 10:57:02;;;;;;;1999.90;999.90;;;6.20;99.90;;;;;;5013376;28;20060;-75
2023/03/07 10:59:28;;;;;;;1999.90;999.90;;;6.30;99.90;;;;;;5007009;28;20054;-81
2023/03/07 11:01:57;;;;;;;1999.90;999.90;;;6.40;99.90;;;;;;5009477;28;20142;-74
2023/03/07 11:04:26;;;;;;;1999.90;999.90;;;6.40;99.90;;;;;;5011875;28;20038;-78
2023/03/07 11:06:59;;;;;;;1999.90;999.90;;;6.40;99.90;;;;;;5027037;28;20060;-74
2023/03/07 11:09:29;;;;;;;1999.90;999.90;;;6.50;99.90;;;;;;5013091;28;20033;-74
2023/03/07 11:11:58;;;;;;;1999.90;999.90;;;6.40;99.90;;;;;;5017208;28;20390;-81
2023/03/07 11:14:28;;;;;;;1999.90;999.90;;;6.50;99.90;;;;;;5014847;28;20037;-79
2023/03/07 11:16:55;;;;;;;1999.90;999.90;;;6.60;99.90;;;;;;5025333;28;20032;-78
2023/03/07 11:19:43;;;;;;;1999.90;999.90;;;6.60;99.90;;;;;;5008740;28;20034;-72
2023/03/07 11:22:19;;;;;;;1999.90;999.90;;;6.70;99.90;;;;;;5019521;28;20115;-72
2023/03/07 11:25:25;;;;;;;1999.90;999.90;;;7.00;99.90;;;;;;5012910;28;20064;-72
2023/03/07 11:27:56;;;;;;;1999.90;999.90;;;7.30;99.90;;;;;;5007653;28;20030;-72
2023/03/07 11:30:38;;;;;;;1999.90;999.90;;;7.40;99.90;;;;;;5008964;28;20025;-81
2023/03/07 11:33:23;;;;;;;1999.90;999.90;;;7.50;99.90;;;;;;5019674;28;20029;-75
2023/03/07 11:36:00;;;;;;;1999.90;999.90;;;7.80;99.90;;;;;;5024182;28;20526;-81
2023/03/07 11:38:47;;;;;;;1999.90;999.90;;;7.90;99.90;;;;;;5025882;28;20033;-81
2023/03/07 11:41:27;;;;;;;1999.90;999.90;;;8.10;99.90;;;;;;5016467;28;20041;-79
2023/03/07 11:44:31;;;;;;;1999.90;999.90;;;7.90;99.90;;;;;;5013539;28;20060;-75
2023/03/07 11:47:10;;;;;;;1999.90;999.90;;;7.90;99.90;;;;;;5006347;28;20048;-75
2023/03/07 11:50:15;;;;;;;1999.90;999.90;;;8.10;99.90;;;;;;5005703;28;20033;-80
2023/03/07 11:53:09;;;;;;;1999.90;999.90;;;8.20;99.90;;;;;;5014186;28;20629;-80
2023/03/07 11:56:00;;;;;;;1999.90;999.90;;;8.40;99.90;;;;;;5012923;28;20037;-81
2023/03/07 11:58:48;;;;;;;1999.90;999.90;;;8.70;99.90;;;;;;5052738;28;20453;-75
2023/03/07 12:01:42;;;;;;;1999.90;999.90;;;8.50;99.90;;;;;;5006781;28;20818;-76
2023/03/07 12:04:11;;;;;;;1999.90;999.90;;;8.50;99.90;;;;;;5013129;28;20050;-75
2023/03/07 12:07:03;;;;;;;1999.90;999.90;;;8.80;99.90;;;;;;5022132;28;20127;-75
2023/03/07 12:09:47;;;;;;;1999.90;999.90;;;8.60;99.90;;;;;;5016522;28;20132;-79
2023/03/07 12:12:13;;;;;;;1999.90;999.90;;;8.50;99.90;;;;;;5014570;28;20037;-75
2023/03/07 12:15:03;;;;;;;1999.90;999.90;;;8.30;99.90;;;;;;5047067;28;20034;-75
2023/03/07 12:18:06;;;;;;;1999.90;999.90;;;8.30;99.90;;;;;;5005770;28;20030;-75
2023/03/07 12:20:41;;;;;;;;;;;8.30;99.90;;;;;;5009574;28;20065;-80